• Join FlightAware (Why Join?)
  • Login
  • US Flag 
03:03AM EST


 

Airport Tracker/Info


-or-


 

Live Flight TrackerFlight Track Log ✈ N762NC ✈ 21-Aug-2013 ✈ KATL - KBNA

Flight Track Log - Related Links

Times and Time Zones

All times are in EDT time to prevent confusion due to time zone crossing. See the N762NC flight status page for this flight to view local times or setup timezone preferences in your user account.

Time Position Orientation Groundspeed Altitude Reporting Facility
EDT Latitude Longitude Course Direction KTS MPH feet Rate Location/Type
10:16AM 33.6708 -84.3433 328° Northwest 439 505 3,100  Level Atlanta Center
10:17AM 33.7167 -84.3000 38° Northeast 282 325 5,600 3,000 Climbing Atlanta TRACON
10:18AM 33.9429 -84.5001 349° North  Level FlightAware Approximate
10:18AM 33.8000 -84.3000 360° North 297 342 8,500  Level Atlanta TRACON
10:19AM 34.0449 -84.5242 349° North  Level FlightAware Approximate
10:19AM 33.8833 -84.3333 342° North 305 351 10,900  Level Atlanta TRACON
10:20AM 34.1414 -84.5499 347° North  Level FlightAware Approximate
10:20AM 33.9669 -84.3969 328° Northwest 359 413 13,200  Level Atlanta Center
10:21AM 34.2371 -84.5949 328° Northwest  Level FlightAware Approximate
10:21AM 34.0586 -84.4675 327° Northwest 359 413 15,200  Level Atlanta Center
10:22AM 34.1397 -84.5281 328° Northwest 369 425 17,100 1,500 Climbing Atlanta Center
10:23AM 34.2314 -84.5992 327° Northwest 386 444 18,300 1,500 Climbing Atlanta Center
10:24AM 34.3250 -84.6675 329° Northwest 392 451 20,100 2,100 Climbing Atlanta Center
10:25AM 34.4183 -84.7364 329° Northwest 397 457 22,500 1,800 Climbing Atlanta Center
10:26AM 34.5139 -84.8053 329° Northwest 392 451 23,700 1,320 Climbing Atlanta Center
10:27AM 34.6178 -84.8844 328° Northwest 400 460 25,200 1,140 Climbing Atlanta Center
10:28AM 34.7072 -84.9458 331° Northwest 406 467 26,000 360 Climbing Atlanta Center
10:29AM 34.8025 -85.0356 322° Northwest 419 482 26,000  Level Atlanta Center
10:30AM 34.8681 -85.1628 302° West 434 499 26,000  Level Atlanta Center
10:31AM 34.9022 -85.3078 286° West 434 499 26,000  Level Atlanta Center
10:32AM 34.9278 -85.4525 282° West 434 499 26,000  Level Atlanta Center
10:33AM 34.9575 -85.5922 285° West 434 499 26,000 -720 Level Atlanta Center
10:36AM 35.0325 -85.9267 285° West 428 493 23,700 -1,080 Descending Memphis Center
10:37AM 35.1050 -86.0319 310° West 411 473 22,400 -1,500 Descending Memphis Center
10:38AM 35.1772 -86.1300 312° West 401 461 20,700 -1,560 Descending Memphis Center
10:39AM 35.2733 -86.1964 331° Northwest 389 448 19,300 -900 Descending Memphis Center
10:40AM 35.3833 -86.2392 342° North 375 432 19,000 -840 Descending Memphis Center
10:41AM 35.4786 -86.2828 340° North 370 426 17,700 -2,220 Descending Memphis Center
10:42AM 35.5717 -86.3269 339° North 365 420 14,600 -3,060 Descending Memphis Center
10:43AM 35.6711 -86.3706 340° North 365 420 11,600 -1,860 Descending Memphis Center
10:44AM 35.7544 -86.4278 331° Northwest 349 402 10,900 -600 Descending Memphis Center
10:45AM 35.8392 -86.4725 337° Northwest 334 384 10,500 -780 Descending Memphis Center
10:46AM 35.9172 -86.5022 343° North 305 351 9,400 -1,200 Descending Memphis Center
10:47AM 35.9847 -86.5272 343° North 286 329 8,200 -1,200 Descending Memphis Center
10:48AM 36.0608 -86.5594 341° North 286 329 7,100 -1,080 Descending Memphis Center
10:49AM 36.1311 -86.5383 14° North 269 310 6,100 -840 Descending Memphis Center
10:50AM 36.1994 -86.5272 North 257 296 5,500 -900 Descending Memphis Center
10:51AM 36.2639 -86.5244 North 241 277 4,300 -1,140 Descending Memphis Center
10:52AM 36.2806 -86.5853 289° West 173 199 3,300 -780 Descending Memphis Center
10:53AM 36.2375 -86.6156 210° Southwest 133 153 2,800 -780 Descending Memphis Center
10:54AM 36.1925 -86.6383 202° Southwest 152 175 1,800 -900 Descending Memphis Center
10:55AM 36.1553 -86.6503 195° South 158 182 1,000 -840 Descending Memphis Center